createdAt,value
2022-12-15T00:05:09.289Z,0
2022-12-15T00:10:17.802Z,0
2022-12-15T00:15:26.243Z,0
2022-12-15T00:20:36.026Z,0
2022-12-15T00:25:44.514Z,0
2022-12-15T00:31:02.952Z,0
2022-12-15T00:36:02.731Z,0
2022-12-15T00:41:11.846Z,0
2022-12-15T00:46:20.598Z,0
2022-12-15T00:51:30.122Z,0
2022-12-15T00:56:39.208Z,0
2022-12-15T01:01:50.329Z,0
2022-12-15T01:06:56.835Z,0
2022-12-15T01:12:05.304Z,1
2022-12-15T01:17:13.767Z,0
2022-12-15T01:22:24.809Z,0
2022-12-15T01:27:33.929Z,0
2022-12-15T01:32:46.804Z,0
2022-12-15T01:37:52.174Z,0
2022-12-15T01:43:00.656Z,0
2022-12-15T01:48:10.448Z,0
2022-12-15T01:53:20.163Z,0
2022-12-15T01:58:28.648Z,0
2022-12-15T02:03:38.404Z,0
2022-12-15T02:08:47.567Z,0
2022-12-15T02:13:56.044Z,0
2022-12-15T02:19:07.045Z,0
2022-12-15T02:24:20.219Z,0
2022-12-15T02:29:35.105Z,0
2022-12-15T02:34:53.180Z,0
2022-12-15T02:40:09.991Z,0
2022-12-15T02:45:26.156Z,0
2022-12-15T02:50:41.060Z,0
2022-12-15T02:55:57.184Z,0
2022-12-15T03:01:12.107Z,0
2022-12-15T03:06:27.589Z,0
2022-12-15T03:10:52.469Z,0
2022-12-15T03:15:45.451Z,0
2022-12-15T03:20:54.568Z,0
2022-12-15T03:26:03.079Z,0
2022-12-15T03:31:11.537Z,0
2022-12-15T03:36:21.286Z,0
2022-12-15T03:41:31.046Z,0
2022-12-15T03:46:38.894Z,0
2022-12-15T03:51:47.368Z,0
2022-12-15T03:56:55.872Z,0
2022-12-15T04:02:05.580Z,0
2022-12-15T04:07:16.654Z,0
2022-12-15T04:12:27.637Z,0
2022-12-15T04:17:34.916Z,0
2022-12-15T04:22:43.397Z,0
2022-12-15T04:28:02.071Z,0
2022-12-15T04:33:02.276Z,0
2022-12-15T04:38:10.095Z,0
2022-12-15T04:43:19.844Z,0
2022-12-15T04:48:29.015Z,0
2022-12-15T04:53:37.459Z,0
2022-12-15T04:58:47.215Z,0
2022-12-15T05:03:57.157Z,0
2022-12-15T05:09:06.082Z,0
2022-12-15T05:14:15.845Z,0
2022-12-15T05:19:25.608Z,0
2022-12-15T05:24:35.377Z,0
2022-12-15T05:29:44.490Z,0
2022-12-15T05:34:53.644Z,0
2022-12-15T05:40:02.728Z,0
2022-12-15T05:45:12.531Z,0
2022-12-15T05:50:21.004Z,0
2022-12-15T05:55:30.740Z,0
2022-12-15T06:00:39.881Z,0
2022-12-15T06:05:56.962Z,0
2022-12-15T06:11:00.660Z,0
2022-12-15T06:16:09.347Z,0
2022-12-15T06:21:19.556Z,0
2022-12-15T06:26:28.663Z,0
2022-12-15T06:31:40.596Z,0
2022-12-15T06:36:55.418Z,0
2022-12-15T06:42:11.628Z,0
2022-12-15T06:47:26.505Z,0
2022-12-15T06:52:42.073Z,0
2022-12-15T06:57:59.948Z,2
2022-12-15T07:03:13.330Z,4
2022-12-15T07:08:32.272Z,9
2022-12-15T07:13:44.703Z,15
2022-12-15T07:19:00.866Z,26
2022-12-15T07:23:39.835Z,40
2022-12-15T07:28:26.107Z,55
2022-12-15T07:33:30.700Z,75
2022-12-15T07:38:37.651Z,99
2022-12-15T07:43:46.101Z,118
2022-12-15T07:48:55.216Z,160
2022-12-15T07:54:04.364Z,193
2022-12-15T07:59:14.096Z,225
2022-12-15T08:04:24.512Z,253
2022-12-15T08:09:34.889Z,284
2022-12-15T08:14:50.357Z,309
2022-12-15T08:20:00.088Z,348
2022-12-15T08:25:02.923Z,385
2022-12-15T08:30:12.657Z,410
2022-12-15T08:35:57.529Z,454
2022-12-15T08:40:30.873Z,445
2022-12-15T08:45:40.134Z,487
2022-12-15T08:50:49.172Z,504
2022-12-15T08:55:58.890Z,437
2022-12-15T09:01:08.291Z,583
2022-12-15T09:06:17.768Z,586
2022-12-15T09:11:26.934Z,549
2022-12-15T09:16:35.174Z,617
2022-12-15T09:21:48.541Z,597
2022-12-15T09:27:05.992Z,659
2022-12-15T09:32:22.197Z,671
2022-12-15T09:37:37.028Z,686
2022-12-15T09:42:59.851Z,710
2022-12-15T09:48:07.426Z,716
2022-12-15T09:53:54.496Z,708
2022-12-15T09:58:39.100Z,709
2022-12-15T10:03:54.150Z,709
2022-12-15T10:08:19.533Z,737
2022-12-15T10:13:12.494Z,729
2022-12-15T10:18:22.291Z,754
2022-12-15T10:23:32.660Z,748
2022-12-15T15:03:48.041Z,140
2022-12-15T15:09:00.543Z,114
2022-12-15T15:14:15.429Z,89
2022-12-15T15:20:04.904Z,68
2022-12-15T15:25:19.747Z,48
2022-12-15T15:30:34.673Z,32
2022-12-15T15:34:59.506Z,19
2022-12-15T15:39:53.125Z,9
2022-12-15T15:45:02.893Z,4
2022-12-15T15:50:12.661Z,3
2022-12-15T15:55:21.811Z,1
2022-12-15T16:00:31.534Z,0
2022-12-15T16:05:40.693Z,0
2022-12-15T16:10:49.144Z,0
2022-12-15T16:15:58.588Z,0
2022-12-15T16:21:06.737Z,0
2022-12-15T16:26:15.861Z,0
2022-12-15T16:31:24.730Z,0
2022-12-15T16:36:32.830Z,0
2022-12-15T16:41:42.583Z,0
2022-12-15T16:46:52.042Z,0
2022-12-15T16:52:00.172Z,0
2022-12-15T16:57:09.934Z,0
2022-12-15T17:02:20.169Z,0
2022-12-15T17:07:28.832Z,0
2022-12-15T17:12:37.295Z,0
2022-12-15T17:17:45.126Z,0
2022-12-15T17:22:54.944Z,0
2022-12-15T17:28:04.033Z,0
2022-12-15T17:33:13.177Z,0
2022-12-15T17:38:22.247Z,0
2022-12-15T17:43:36.727Z,0
2022-12-15T17:48:40.521Z,0
2022-12-15T17:53:52.029Z,0
2022-12-15T17:58:59.349Z,0
2022-12-15T18:04:08.827Z,0
